Djerba Mellita, Tunisia
Current Conditions -  °F | °C
As of 8:30 PM on Wednesday 17 Dec 2014 (Local Time) from DTTJ Reporting Station
Few Clouds Few Clouds  
Wind Chill: 61°   Ceiling: Unl
Heat Index: 61°   Visibility: 6mi
Dew Point: 46°   Wind: 14mph
Humidity: 59%   Direction: 280°W
Pressure: 30.09"   Gusts: NA
Location:  33.87°N, 10.77°E
Report Text: DTTJ 171930Z 28012KT 9999 FEW026 16/08 Q1019 NOSIG
Loading
Personal Weather Stations






























Interactive Weather Map New forecast layout! Learn more

10-Day Weather Forecast

Advertisements
Track Severe Weather on mobile